createdAt,value
2023-03-26T00:02:06.234Z,10.60
2023-03-26T00:04:34.686Z,10.58
2023-03-26T00:07:03.091Z,10.54
2023-03-26T00:09:31.387Z,10.46
2023-03-26T00:11:59.462Z,10.39
2023-03-26T00:14:29.303Z,10.35
2023-03-26T00:16:58.755Z,10.40
2023-03-26T00:19:27.945Z,10.44
2023-03-26T00:21:57.823Z,10.49
2023-03-26T00:24:29.626Z,10.59
2023-03-26T00:26:57.639Z,10.61
2023-03-26T00:29:28.168Z,10.60
2023-03-26T00:31:56.277Z,10.48
2023-03-26T00:34:26.760Z,10.40
2023-03-26T00:36:55.230Z,10.36
2023-03-26T00:39:24.167Z,10.34
2023-03-26T00:41:54.514Z,10.38
2023-03-26T00:44:23.015Z,10.44
2023-03-26T00:46:51.051Z,10.50
2023-03-26T00:49:19.068Z,10.53
2023-03-26T00:51:48.449Z,10.54
2023-03-26T00:54:16.594Z,10.63
2023-03-26T00:56:44.581Z,10.67
2023-03-26T00:59:12.723Z,10.70
2023-03-26T01:01:40.819Z,10.67
2023-03-26T01:04:28.322Z,10.65
2023-03-26T01:07:00.077Z,10.71
2023-03-26T01:09:34.196Z,10.74
2023-03-26T01:12:05.808Z,10.73
2023-03-26T01:14:34.081Z,10.65
2023-03-26T01:17:03.918Z,10.60
2023-03-26T01:19:39.301Z,10.62
2023-03-26T01:22:11.277Z,10.61
2023-03-26T01:24:41.078Z,10.60
2023-03-26T01:27:20.963Z,10.56
2023-03-26T01:29:55.745Z,10.43
2023-03-26T01:32:33.066Z,10.31
2023-03-26T01:35:14.202Z,10.25
2023-03-26T01:37:53.589Z,10.19
2023-03-26T01:40:28.331Z,10.19
2023-03-26T01:43:01.573Z,10.20
2023-03-26T01:45:33.380Z,10.20
2023-03-26T01:48:01.805Z,10.20
2023-03-26T01:50:29.960Z,10.21
2023-03-26T01:52:58.239Z,10.17
2023-03-26T01:55:35.183Z,10.15
2023-03-26T01:58:12.990Z,10.12
2023-03-26T02:00:49.456Z,10.16
2023-03-26T02:03:26.650Z,10.23
2023-03-26T02:06:00.578Z,10.26
2023-03-26T02:08:35.830Z,10.28
2023-03-26T02:11:11.471Z,10.29
2023-03-26T02:13:41.081Z,10.32
2023-03-26T02:16:14.339Z,10.30
2023-03-26T02:18:43.112Z,10.34
2023-03-26T02:21:14.502Z,10.39
2023-03-26T02:23:47.212Z,10.41
2023-03-26T02:26:18.992Z,10.48
2023-03-26T02:28:47.207Z,10.51
2023-03-26T02:31:17.270Z,10.54
2023-03-26T02:33:47.666Z,10.59
2023-03-26T02:36:18.557Z,10.65
2023-03-26T02:38:46.767Z,10.71
2023-03-26T02:41:16.283Z,10.74
2023-03-26T02:43:44.351Z,10.75
2023-03-26T02:46:12.337Z,10.69
2023-03-26T02:48:41.569Z,10.63
2023-03-26T02:51:09.783Z,10.59
2023-03-26T02:53:39.578Z,10.57
2023-03-26T02:56:08.277Z,10.55
2023-03-26T02:58:37.682Z,10.60
2023-03-26T03:01:06.124Z,10.61
2023-03-26T03:03:34.636Z,10.63
2023-03-26T03:06:02.795Z,10.63
2023-03-26T03:08:30.898Z,10.64
2023-03-26T03:11:00.404Z,10.66
2023-03-26T03:13:28.828Z,10.65
2023-03-26T03:15:58.179Z,10.62
2023-03-26T03:18:26.312Z,10.65
2023-03-26T03:20:55.060Z,10.67
2023-03-26T03:23:23.175Z,10.64
2023-03-26T03:25:52.854Z,10.67
2023-03-26T03:28:21.131Z,10.70
2023-03-26T03:30:49.136Z,10.69
2023-03-26T03:33:20.427Z,10.63
2023-03-26T03:35:49.496Z,10.55
2023-03-26T03:38:19.265Z,10.51
2023-03-26T03:40:47.544Z,10.47
2023-03-26T03:43:15.767Z,10.39
2023-03-26T03:45:43.867Z,10.39
2023-03-26T03:48:11.896Z,10.42
2023-03-26T03:50:41.985Z,10.46
2023-03-26T03:53:10.033Z,10.55
2023-03-26T03:55:38.351Z,10.58
2023-03-26T03:58:09.307Z,10.56
2023-03-26T04:00:38.345Z,10.59
2023-03-26T04:03:06.698Z,10.59
2023-03-26T04:05:35.073Z,10.60
2023-03-26T04:08:04.596Z,10.65
2023-03-26T04:10:32.634Z,10.67
2023-03-26T04:13:00.757Z,10.67
2023-03-26T04:15:28.811Z,10.61
2023-03-26T04:17:56.872Z,10.53
2023-03-26T04:20:24.951Z,10.38
2023-03-26T04:22:52.969Z,10.27
2023-03-26T04:25:22.547Z,10.21
2023-03-26T04:27:50.504Z,10.17
2023-03-26T04:30:21.631Z,10.09
2023-03-26T04:32:49.646Z,10.14
2023-03-26T04:35:19.586Z,10.18
2023-03-26T04:37:48.002Z,10.26
2023-03-26T04:40:19.533Z,10.27
2023-03-26T04:42:49.155Z,10.26
2023-03-26T04:45:22.590Z,10.32
2023-03-26T04:47:51.135Z,10.35
2023-03-26T04:50:19.481Z,10.38
2023-03-26T04:52:47.480Z,10.36
2023-03-26T04:55:24.957Z,10.34
2023-03-26T04:57:57.827Z,10.34
2023-03-26T05:00:25.889Z,10.32
2023-03-26T05:02:56.214Z,10.28
2023-03-26T05:05:24.903Z,10.28
2023-03-26T05:07:52.924Z,10.30
2023-03-26T05:10:21.589Z,10.33
2023-03-26T05:12:50.210Z,10.34
2023-03-26T05:15:19.821Z,10.30
2023-03-26T05:17:48.569Z,10.32
2023-03-26T05:20:21.048Z,10.30
2023-03-26T05:22:49.968Z,10.22
2023-03-26T05:25:18.391Z,10.25
2023-03-26T05:27:46.864Z,10.29
2023-03-26T05:30:17.044Z,10.31
2023-03-26T05:32:48.930Z,10.34
2023-03-26T05:35:18.119Z,10.22
2023-03-26T05:37:46.670Z,10.16
2023-03-26T05:40:17.354Z,10.15
2023-03-26T05:42:45.712Z,10.14
2023-03-26T05:45:15.889Z,10.17
2023-03-26T05:47:44.227Z,10.22
2023-03-26T05:50:13.797Z,10.26
2023-03-26T05:52:41.895Z,10.24
2023-03-26T05:55:10.822Z,10.21
2023-03-26T05:57:39.280Z,10.22
2023-03-26T06:00:11.344Z,10.16
2023-03-26T06:02:39.506Z,10.16
2023-03-26T06:05:09.973Z,10.24
2023-03-26T06:07:39.866Z,10.23
2023-03-26T06:10:09.488Z,10.18
2023-03-26T06:12:38.248Z,10.27
2023-03-26T06:15:08.800Z,10.34
2023-03-26T06:17:36.893Z,10.39
2023-03-26T06:20:09.288Z,10.44
2023-03-26T06:22:37.570Z,10.50
2023-03-26T06:25:07.768Z,10.56
2023-03-26T06:27:35.824Z,10.63
2023-03-26T06:30:03.888Z,10.70
2023-03-26T06:32:31.940Z,10.73
2023-03-26T06:35:00.026Z,10.64
2023-03-26T06:37:28.002Z,10.58
2023-03-26T06:39:56.005Z,10.55
2023-03-26T06:43:08.020Z,10.53
2023-03-26T06:45:13.375Z,10.41
2023-03-26T06:47:41.421Z,10.30
2023-03-26T06:50:11.617Z,10.26
2023-03-26T06:52:39.618Z,10.27
2023-03-26T06:55:10.423Z,10.21
2023-03-26T06:57:39.843Z,10.23
2023-03-26T07:00:09.856Z,10.22
2023-03-26T07:02:37.960Z,10.21
2023-03-26T07:05:06.335Z,10.23
2023-03-26T07:07:34.317Z,10.31
2023-03-26T07:10:02.361Z,10.35
2023-03-26T07:12:30.507Z,10.41
2023-03-26T07:15:01.797Z,10.43
2023-03-26T07:17:29.971Z,10.43
2023-03-26T07:19:58.306Z,10.48
2023-03-26T07:22:27.194Z,10.57
2023-03-26T07:24:56.133Z,10.63
2023-03-26T07:27:36.302Z,10.60
2023-03-26T07:30:10.672Z,10.63
2023-03-26T07:32:48.732Z,10.67
2023-03-26T07:35:23.660Z,10.67
2023-03-26T07:38:03.402Z,10.58
2023-03-26T07:40:45.708Z,10.44
2023-03-26T07:43:26.858Z,10.37
2023-03-26T07:45:57.655Z,10.34
2023-03-26T07:48:28.148Z,10.32
2023-03-26T07:50:57.538Z,10.33
2023-03-26T07:53:26.604Z,10.41
2023-03-26T07:56:01.625Z,10.42
2023-03-26T07:58:50.576Z,10.43
2023-03-26T08:01:28.312Z,10.46
2023-03-26T08:04:43.328Z,10.49
2023-03-26T08:07:19.275Z,10.56
2023-03-26T08:10:03.414Z,10.65
2023-03-26T08:12:42.860Z,10.71
2023-03-26T08:15:19.266Z,10.75
2023-03-26T08:17:53.571Z,10.80
2023-03-26T08:20:32.600Z,10.84
2023-03-26T08:23:09.381Z,10.84
2023-03-26T08:25:49.968Z,10.84
2023-03-26T08:28:31.261Z,10.83
2023-03-26T08:31:02.992Z,10.86
2023-03-26T08:33:36.011Z,10.86
2023-03-26T08:36:06.064Z,10.88
2023-03-26T08:38:34.221Z,10.89
2023-03-26T08:41:37.464Z,10.80
2023-03-26T08:44:49.923Z,10.64
2023-03-26T08:47:55.689Z,10.56
2023-03-26T08:51:05.095Z,10.57
2023-03-26T08:54:18.010Z,10.61
2023-03-26T08:56:54.045Z,10.57
2023-03-26T08:59:50.674Z,10.45
2023-03-26T09:02:41.052Z,10.41
2023-03-26T09:05:39.778Z,10.49
2023-03-26T09:08:53.667Z,10.60
2023-03-26T09:12:25.595Z,10.67
2023-03-26T09:15:36.697Z,10.71
2023-03-26T09:18:32.456Z,10.78
2023-03-26T09:21:33.143Z,10.89
2023-03-26T09:24:42.214Z,10.93
2023-03-26T09:27:30.027Z,10.95
2023-03-26T09:30:31.684Z,10.94
2023-03-26T09:33:32.266Z,10.85
2023-03-26T09:36:27.262Z,10.86
2023-03-26T09:39:04.088Z,10.97
2023-03-26T09:41:43.109Z,11.02
2023-03-26T09:44:33.608Z,11.01
2023-03-26T09:47:47.744Z,10.94
2023-03-26T09:50:36.659Z,10.86
2023-03-26T09:53:26.837Z,10.89
2023-03-26T09:56:05.966Z,10.89
2023-03-26T09:58:48.134Z,10.90
2023-03-26T10:01:25.176Z,10.94
2023-03-26T10:04:08.454Z,10.89
2023-03-26T10:06:49.715Z,11.00
2023-03-26T10:09:32.832Z,11.10
2023-03-26T10:12:16.934Z,11.19
2023-03-26T10:14:55.741Z,11.23
2023-03-26T10:17:40.056Z,11.15
2023-03-26T10:20:33.131Z,11.16
2023-03-26T10:23:25.938Z,11.18
2023-03-26T10:26:05.068Z,11.15
2023-03-26T10:28:45.842Z,11.10
2023-03-26T10:31:49.175Z,11.00
2023-03-26T10:34:50.010Z,10.88
2023-03-26T10:37:25.961Z,10.89
2023-03-26T10:40:13.912Z,10.89
2023-03-26T10:43:22.175Z,10.92
2023-03-26T10:46:29.533Z,10.99
2023-03-26T10:49:15.681Z,10.83
2023-03-26T10:51:53.515Z,10.76
2023-03-26T10:54:33.382Z,10.80
2023-03-26T10:57:04.419Z,10.86
2023-03-26T10:59:32.545Z,10.96
2023-03-26T11:02:15.972Z,11.11
2023-03-26T11:04:54.839Z,11.34
2023-03-26T11:07:29.642Z,11.55
2023-03-26T11:10:06.411Z,11.68
2023-03-26T11:12:41.355Z,11.89
2023-03-26T11:15:22.642Z,12.05
2023-03-26T11:18:02.288Z,12.39
2023-03-26T11:20:38.826Z,12.80
2023-03-26T11:23:35.883Z,12.88
2023-03-26T11:26:12.608Z,12.82
2023-03-26T11:29:32.357Z,12.87
2023-03-26T11:32:02.301Z,13.13
2023-03-26T11:34:37.070Z,13.38
2023-03-26T11:37:09.948Z,13.43
2023-03-26T11:39:46.543Z,13.47
2023-03-26T11:42:17.494Z,13.53
2023-03-26T11:44:51.433Z,13.59
2023-03-26T11:47:24.673Z,13.70
2023-03-26T11:49:56.490Z,13.84
2023-03-26T11:52:24.664Z,13.91
2023-03-26T11:54:58.668Z,13.92
2023-03-26T11:57:31.069Z,13.57
2023-03-26T12:00:09.102Z,13.24
2023-03-26T12:02:40.792Z,13.11
2023-03-26T12:05:19.454Z,13.07
2023-03-26T12:07:53.210Z,13.25
2023-03-26T12:10:33.794Z,13.32
2023-03-26T12:13:04.236Z,13.51
2023-03-26T12:15:32.723Z,13.73
2023-03-26T12:18:21.197Z,13.91
2023-03-26T12:20:49.524Z,14.05
2023-03-26T12:23:38.844Z,14.11
2023-03-26T12:26:15.782Z,14.21
2023-03-26T12:28:48.652Z,14.32
2023-03-26T12:31:19.586Z,14.41
2023-03-26T12:34:07.618Z,14.55
2023-03-26T12:36:36.536Z,14.62
2023-03-26T12:40:07.350Z,14.81
2023-03-26T12:44:45.046Z,14.99
2023-03-26T12:45:23.845Z,15.02
2023-03-26T12:47:58.377Z,14.93
2023-03-26T12:50:38.139Z,15.01
2023-03-26T12:53:33.413Z,15.06
2023-03-26T12:56:09.849Z,15.17
2023-03-26T12:58:58.749Z,15.21
2023-03-26T13:01:34.483Z,15.11
2023-03-26T13:04:30.286Z,14.92
2023-03-26T13:07:02.485Z,14.71
2023-03-26T13:09:45.136Z,14.53
2023-03-26T13:12:26.527Z,14.33
2023-03-26T13:15:17.980Z,14.12
2023-03-26T13:17:56.966Z,14.00
2023-03-26T13:20:33.077Z,13.89
2023-03-26T13:23:08.807Z,13.91
2023-03-26T13:25:49.367Z,14.10
2023-03-26T13:28:30.977Z,14.33
2023-03-26T13:33:50.094Z,14.64
2023-03-26T13:36:24.559Z,14.60
2023-03-26T13:39:16.468Z,14.54
2023-03-26T13:41:59.026Z,14.47
2023-03-26T13:44:38.100Z,14.34
2023-03-26T13:47:12.076Z,14.24
2023-03-26T13:49:45.365Z,14.11
2023-03-26T13:52:19.753Z,14.01
2023-03-26T13:54:52.678Z,13.88
2023-03-26T13:57:26.298Z,13.77
2023-03-26T13:59:59.738Z,13.60
2023-03-26T14:02:35.769Z,13.45
2023-03-26T14:05:10.216Z,13.23
2023-03-26T14:07:44.426Z,12.95
2023-03-26T14:10:16.326Z,12.82
2023-03-26T14:12:55.631Z,12.75
2023-03-26T14:15:28.412Z,12.68
2023-03-26T14:18:07.865Z,12.65
2023-03-26T14:21:10.666Z,12.55
2023-03-26T14:24:09.128Z,12.42
2023-03-26T14:26:51.989Z,12.24
2023-03-26T14:29:31.687Z,11.74
2023-03-26T14:32:13.910Z,11.16
2023-03-26T14:34:55.922Z,10.72
2023-03-26T14:37:49.050Z,10.41
2023-03-26T14:40:45.521Z,10.20
2023-03-26T14:43:35.539Z,10.21
2023-03-26T14:46:15.559Z,10.46
2023-03-26T14:49:26.167Z,10.80
2023-03-26T14:52:11.233Z,11.01
2023-03-26T14:54:42.628Z,11.06
2023-03-26T14:57:36.301Z,11.01
2023-03-26T15:00:55.588Z,10.75
2023-03-26T15:04:09.506Z,10.62
2023-03-26T15:07:25.776Z,10.77
2023-03-26T15:10:39.757Z,10.81
2023-03-26T15:13:35.141Z,10.65
2023-03-26T15:16:18.188Z,10.48
2023-03-26T15:19:18.847Z,10.41
2023-03-26T15:22:24.521Z,10.56
2023-03-26T15:25:46.832Z,10.82
2023-03-26T15:28:50.576Z,10.85
2023-03-26T15:31:51.153Z,10.84
2023-03-26T15:34:45.501Z,10.83
2023-03-26T15:38:04.315Z,10.83
2023-03-26T15:41:17.595Z,10.85
2023-03-26T15:44:33.031Z,10.81
2023-03-26T15:47:40.240Z,10.77
2023-03-26T15:50:21.524Z,10.75
2023-03-26T15:52:57.950Z,10.75
2023-03-26T15:55:33.776Z,10.78
2023-03-26T15:58:11.438Z,10.75
2023-03-26T16:00:50.531Z,10.67
2023-03-26T16:03:31.696Z,10.65
2023-03-26T16:06:31.159Z,10.66
2023-03-26T16:09:12.781Z,10.65
2023-03-26T16:11:53.595Z,10.61
2023-03-26T16:14:25.698Z,10.41
2023-03-26T16:16:58.735Z,10.29
2023-03-26T16:19:52.020Z,10.30
2023-03-26T16:22:46.519Z,10.47
2023-03-26T16:25:27.399Z,10.64
2023-03-26T16:28:18.180Z,10.86
2023-03-26T16:31:23.602Z,11.04
2023-03-26T16:34:22.856Z,11.16
2023-03-26T16:36:51.528Z,11.34
2023-03-26T16:39:23.720Z,11.48
2023-03-26T16:42:27.947Z,11.43
2023-03-26T16:45:11.331Z,11.16
2023-03-26T16:47:51.651Z,11.01
2023-03-26T16:50:30.078Z,10.91
2023-03-26T16:53:06.625Z,10.89
2023-03-26T16:55:44.557Z,10.89
2023-03-26T16:58:23.182Z,10.82
2023-03-26T17:01:01.039Z,10.74
2023-03-26T17:03:37.749Z,10.68
2023-03-26T17:06:21.032Z,10.67
2023-03-26T17:09:02.817Z,10.61
2023-03-26T17:11:40.057Z,10.48
2023-03-26T17:14:19.687Z,10.38
2023-03-26T17:16:50.337Z,10.37
2023-03-26T17:19:29.776Z,10.39
2023-03-26T17:22:03.841Z,10.34
2023-03-26T17:24:43.397Z,10.28
2023-03-26T17:27:28.324Z,10.20
2023-03-26T17:30:24.952Z,10.18
2023-03-26T17:32:56.766Z,10.23
2023-03-26T17:35:44.561Z,10.32
2023-03-26T17:39:00.537Z,10.35
2023-03-26T17:41:56.679Z,10.44
2023-03-26T17:44:48.709Z,10.54
2023-03-26T17:47:27.728Z,10.58
2023-03-26T17:50:01.610Z,10.58
2023-03-26T17:52:48.072Z,10.57
2023-03-26T17:55:19.586Z,10.51
2023-03-26T17:57:50.971Z,10.45
2023-03-26T18:00:23.950Z,10.41
2023-03-26T18:02:57.417Z,10.35
2023-03-26T18:05:29.590Z,10.27
2023-03-26T18:08:34.138Z,10.21
2023-03-26T18:11:31.781Z,10.17
2023-03-26T18:14:35.640Z,10.16
2023-03-26T18:17:04.647Z,10.13
2023-03-26T18:19:48.804Z,10.16
2023-03-26T18:22:22.201Z,10.23
2023-03-26T18:24:51.396Z,10.26
2023-03-26T18:27:21.784Z,10.28
2023-03-26T18:30:03.046Z,10.26
2023-03-26T18:32:33.499Z,10.23
2023-03-26T18:35:04.531Z,10.18
2023-03-26T18:37:34.698Z,10.15
2023-03-26T18:40:11.972Z,10.12
2023-03-26T18:42:42.165Z,10.07
2023-03-26T18:45:24.796Z,10.07
2023-03-26T18:47:54.914Z,10.10
2023-03-26T18:50:26.667Z,10.13
2023-03-26T18:52:57.265Z,10.16
2023-03-26T18:55:28.336Z,10.18
2023-03-26T18:57:57.317Z,10.22
2023-03-26T19:00:30.412Z,10.27
2023-03-26T19:03:05.055Z,10.34
2023-03-26T19:05:34.874Z,10.37
2023-03-26T19:08:04.948Z,10.38
2023-03-26T19:10:34.473Z,10.39
2023-03-26T19:13:04.157Z,10.33
2023-03-26T19:15:35.461Z,10.23
2023-03-26T19:18:10.022Z,10.15
2023-03-26T19:20:43.374Z,10.12
2023-03-26T19:23:16.649Z,10.10
2023-03-26T19:25:48.284Z,10.14
2023-03-26T19:28:20.372Z,10.14
2023-03-26T19:30:54.885Z,10.08
2023-03-26T19:33:23.819Z,10.06
2023-03-26T19:35:54.642Z,10.08
2023-03-26T19:38:25.030Z,10.05
2023-03-26T19:40:55.615Z,9.96
2023-03-26T19:43:25.220Z,9.94
2023-03-26T19:45:59.716Z,9.91
2023-03-26T19:48:45.692Z,9.84
2023-03-26T19:51:21.427Z,9.76
2023-03-26T19:53:54.237Z,9.68
2023-03-26T19:56:23.483Z,9.67
2023-03-26T19:58:51.734Z,9.64
2023-03-26T20:01:24.090Z,9.62
2023-03-26T20:03:55.405Z,9.66
2023-03-26T20:06:34.144Z,9.74
2023-03-26T20:09:11.366Z,9.83
2023-03-26T20:11:40.902Z,9.92
2023-03-26T20:14:14.220Z,9.99
2023-03-26T20:16:45.426Z,10.03
2023-03-26T20:19:14.504Z,10.06
2023-03-26T20:21:43.211Z,10.12
2023-03-26T20:24:14.777Z,10.14
2023-03-26T20:26:43.078Z,10.20
2023-03-26T20:29:11.728Z,10.24
2023-03-26T20:31:41.615Z,10.29
2023-03-26T20:34:16.987Z,10.32
2023-03-26T20:36:45.595Z,10.27
2023-03-26T20:39:13.969Z,10.17
2023-03-26T20:41:47.267Z,10.13
2023-03-26T20:44:17.676Z,10.14
2023-03-26T20:46:46.713Z,10.13
2023-03-26T20:49:17.918Z,10.11
2023-03-26T20:51:46.907Z,10.09
2023-03-26T20:54:18.153Z,10.09
2023-03-26T20:56:48.023Z,10.10
2023-03-26T20:59:22.597Z,10.13
2023-03-26T21:01:52.288Z,10.17
2023-03-26T21:04:22.349Z,10.18
2023-03-26T21:06:50.865Z,10.11
2023-03-26T21:09:24.035Z,10.01
2023-03-26T21:12:01.880Z,9.92
2023-03-26T21:14:34.539Z,9.90
2023-03-26T21:17:03.004Z,9.81
2023-03-26T21:19:33.323Z,9.70
2023-03-26T21:22:10.060Z,9.63
2023-03-26T21:24:58.276Z,9.65
2023-03-26T21:27:33.908Z,9.71
2023-03-26T21:30:02.354Z,9.81
2023-03-26T21:32:31.674Z,9.79
2023-03-26T21:35:03.437Z,9.69
2023-03-26T21:37:32.221Z,9.66
2023-03-26T21:40:10.771Z,9.66
2023-03-26T21:42:39.348Z,9.72
2023-03-26T21:45:08.705Z,9.78
2023-03-26T21:47:37.358Z,9.82
2023-03-26T21:50:09.152Z,9.91
2023-03-26T21:52:48.495Z,9.97
2023-03-26T21:55:18.618Z,10.02
2023-03-26T21:58:09.971Z,10.02
2023-03-26T22:00:46.707Z,9.96
2023-03-26T22:03:23.691Z,9.88
2023-03-26T22:06:00.732Z,9.77
2023-03-26T22:08:31.783Z,9.76
2023-03-26T22:10:59.767Z,9.75
2023-03-26T22:13:27.742Z,9.78
2023-03-26T22:15:56.929Z,9.80
2023-03-26T22:18:26.095Z,9.83
2023-03-26T22:20:55.710Z,9.88
2023-03-26T22:23:24.533Z,9.91
2023-03-26T22:25:52.629Z,9.93
2023-03-26T22:28:20.945Z,9.91
2023-03-26T22:30:48.996Z,9.84
2023-03-26T22:33:17.985Z,9.81
2023-03-26T22:35:46.410Z,9.80
2023-03-26T22:38:17.162Z,9.80
2023-03-26T22:40:45.237Z,9.84
2023-03-26T22:43:13.223Z,9.86
2023-03-26T22:45:41.176Z,9.89
2023-03-26T22:48:09.392Z,9.86
2023-03-26T22:50:37.454Z,9.89
2023-03-26T22:53:05.468Z,9.93
2023-03-26T22:55:34.848Z,9.96
2023-03-26T22:58:02.848Z,9.91
2023-03-26T23:00:32.465Z,9.93
2023-03-26T23:03:00.940Z,9.97
2023-03-26T23:05:29.462Z,9.93
2023-03-26T23:07:58.042Z,9.91
2023-03-26T23:10:26.115Z,9.92
2023-03-26T23:12:55.537Z,9.95
2023-03-26T23:15:25.987Z,9.94
2023-03-26T23:17:55.054Z,9.98
2023-03-26T23:20:23.449Z,9.98
2023-03-26T23:22:51.431Z,9.91
2023-03-26T23:25:20.154Z,9.78
2023-03-26T23:27:48.725Z,9.70
2023-03-26T23:30:18.381Z,9.61
2023-03-26T23:32:47.156Z,9.50
2023-03-26T23:35:15.659Z,9.48
2023-03-26T23:37:43.637Z,9.52
2023-03-26T23:40:13.867Z,9.57
2023-03-26T23:42:42.450Z,9.63
2023-03-26T23:45:12.365Z,9.68
2023-03-26T23:47:42.651Z,9.70
2023-03-26T23:50:11.632Z,9.74
2023-03-26T23:52:39.942Z,9.80
2023-03-26T23:55:08.510Z,9.80
2023-03-26T23:57:37.165Z,9.79
